Terminal Aerodrome Forecast
Issued by NWS

Home | Current Version | Previous Version | Text Only | Print | Product List | Glossary On
Versions: 1 2 3 4 5 6 7 8 9 10 11 12 13 14 15 16 17 18 19 20 21 22 23 24 25 26 27 28
000
FTUS43 KDTX 270520
TAFPTK
TAF
KPTK 270520Z 2706/2806 33005KT P6SM SCT028 OVC040
     FM271400 29008KT P6SM BKN045 OVC120
     FM272100 32011G19KT P6SM BKN030 OVC050
     FM280300 30007KT P6SM SCT050=

USA.gov is the U.S. government's official web portal to all federal, state and local government web resources and services.